Aviation Digital Data Service (ADDS)

Output produced by TAFs form (0536 UTC 27 April 2015)
found at http://aviationweather.gov/adds/tafs/
 
KELP 270531Z 2706/2806 28022G32KT P6SM SCT250 
     FM271200 30014KT P6SM BKN200 
     FM271600 36012KT P6SM SCT100 
     FM272200 05014G20KT P6SM BKN080